Time;durP1;ratioP1;P1;durP2;ratioP2;P2;SDS_P1;SDS_P2;PMS_P1;PMS_P2;Temp;Humidity;BMP_temperature;BMP_pressure;BME280_temperature;BME280_humidity;BME280_pressure;Samples;Min_cycle;Max_cycle;Signal;HPM_P1;HPM_P2
2022/06/28 00:01:32;;;;;;;43.07;25.97;;;;;;;;;;5079730;28;20099;-67
2022/06/28 00:03:57;;;;;;;43.93;27.27;;;;;;;;;;5082508;28;20047;-67
2022/06/28 00:06:22;;;;;;;46.15;27.33;;;;;;;;;;5089033;28;20521;-67
2022/06/28 00:08:48;;;;;;;44.88;25.77;;;;;;;;;;5073735;28;20024;-67
2022/06/28 00:11:13;;;;;;;44.00;26.33;;;;;;;;;;5078214;28;20387;-67
2022/06/28 00:13:38;;;;;;;41.70;26.67;;;;;;;;;;5071325;28;20028;-67
2022/06/28 00:16:06;;;;;;;53.27;29.30;;;;;;;;;;5073823;28;20171;-67
2022/06/28 00:18:35;;;;;;;52.63;29.40;;;;;;;;;;5073994;28;20028;-67
2022/06/28 00:21:01;;;;;;;62.75;30.90;;;;;;;;;;5084081;28;20047;-67
2022/06/28 00:23:27;;;;;;;53.65;29.42;;;;;;;;;;5071911;28;20085;-67
2022/06/28 00:25:52;;;;;;;50.23;30.43;;;;;;;;;;5074436;28;20033;-67
2022/06/28 00:28:18;;;;;;;59.07;31.37;;;;;;;;;;5085332;28;20031;-67
2022/06/28 00:30:43;;;;;;;60.47;31.63;;;;;;;;;;5081111;28;20081;-67
2022/06/28 00:33:08;;;;;;;57.60;30.97;;;;;;;;;;5070911;28;20111;-67
2022/06/28 00:35:33;;;;;;;68.43;35.03;;;;;;;;;;5083178;28;20043;-67
2022/06/28 00:37:59;;;;;;;64.13;33.67;;;;;;;;;;5088356;28;20040;-67
2022/06/28 00:40:24;;;;;;;77.47;36.10;;;;;;;;;;5084317;28;20873;-67
2022/06/28 00:42:49;;;;;;;75.23;36.20;;;;;;;;;;5075912;28;20039;-67
2022/06/28 00:45:14;;;;;;;81.30;37.37;;;;;;;;;;5080173;28;20027;-67
2022/06/28 00:47:40;;;;;;;83.73;39.90;;;;;;;;;;5073659;28;20103;-67
2022/06/28 00:50:05;;;;;;;90.93;39.67;;;;;;;;;;5073032;28;20028;-67
2022/06/28 00:52:31;;;;;;;106.00;41.53;;;;;;;;;;5081371;28;20024;-66
2022/06/28 00:54:56;;;;;;;112.37;43.57;;;;;;;;;;5079623;28;20047;-66
2022/06/28 00:57:21;;;;;;;121.67;44.50;;;;;;;;;;5089175;28;20039;-67
2022/06/28 00:59:47;;;;;;;127.87;46.13;;;;;;;;;;5087549;28;20036;-67
2022/06/28 01:02:12;;;;;;;134.83;48.97;;;;;;;;;;5080280;28;20024;-66
2022/06/28 01:04:38;;;;;;;133.43;49.17;;;;;;;;;;5071120;28;20081;-67
2022/06/28 01:07:03;;;;;;;142.87;51.10;;;;;;;;;;5081035;28;20024;-67
2022/06/28 01:09:28;;;;;;;153.20;52.83;;;;;;;;;;5086850;28;20430;-67
2022/06/28 01:11:54;;;;;;;140.80;51.37;;;;;;;;;;5079842;28;20099;-67
2022/06/28 01:14:19;;;;;;;160.20;54.30;;;;;;;;;;5071929;28;20079;-67
2022/06/28 01:16:45;;;;;;;163.57;56.20;;;;;;;;;;5086671;28;20024;-67
2022/06/28 01:19:10;;;;;;;169.33;55.93;;;;;;;;;;5076120;28;20035;-67
2022/06/28 01:21:36;;;;;;;170.97;57.63;;;;;;;;;;5081139;28;20025;-67
2022/06/28 01:24:02;;;;;;;163.10;55.37;;;;;;;;;;5074247;28;20456;-67
2022/06/28 01:26:29;;;;;;;174.73;57.63;;;;;;;;;;5073413;28;20032;-67
2022/06/28 01:28:54;;;;;;;157.03;54.80;;;;;;;;;;5071488;28;20107;-67
2022/06/28 01:31:20;;;;;;;161.60;55.07;;;;;;;;;;5074777;28;20750;-67
2022/06/28 01:33:46;;;;;;;158.90;56.27;;;;;;;;;;5074627;28;20483;-67
2022/06/28 01:36:12;;;;;;;171.60;57.77;;;;;;;;;;5075972;28;20045;-67
2022/06/28 01:38:40;;;;;;;160.23;55.23;;;;;;;;;;5076149;28;20518;-67
2022/06/28 01:41:06;;;;;;;175.93;55.30;;;;;;;;;;5083444;28;20017;-67
2022/06/28 01:43:32;;;;;;;188.77;60.17;;;;;;;;;;5076274;28;20024;-67
2022/06/28 01:45:58;;;;;;;192.73;58.30;;;;;;;;;;5087030;28;20456;-67
2022/06/28 01:48:23;;;;;;;191.10;57.87;;;;;;;;;;5080194;28;20044;-67
2022/06/28 01:50:49;;;;;;;188.90;60.30;;;;;;;;;;5078277;28;20035;-66
2022/06/28 01:53:14;;;;;;;194.87;57.63;;;;;;;;;;5090935;28;20031;-67
2022/06/28 01:55:40;;;;;;;185.00;58.03;;;;;;;;;;5089981;28;20024;-67
2022/06/28 01:58:06;;;;;;;202.77;61.60;;;;;;;;;;5090568;28;20111;-66
2022/06/28 02:00:31;;;;;;;216.77;63.27;;;;;;;;;;5077585;28;20025;-66
2022/06/28 02:02:56;;;;;;;216.93;61.90;;;;;;;;;;5081547;28;20020;-67
2022/06/28 02:05:22;;;;;;;193.87;56.70;;;;;;;;;;5089167;28;20020;-67
2022/06/28 02:07:50;;;;;;;200.67;56.43;;;;;;;;;;5075663;28;20017;-67
2022/06/28 02:10:17;;;;;;;190.80;53.80;;;;;;;;;;5080108;28;20038;-67
2022/06/28 02:12:42;;;;;;;196.63;57.80;;;;;;;;;;5089322;28;20063;-67
2022/06/28 02:15:07;;;;;;;210.00;58.60;;;;;;;;;;5079470;28;20479;-67
2022/06/28 02:17:32;;;;;;;229.80;58.80;;;;;;;;;;5074951;28;20033;-67
2022/06/28 02:19:58;;;;;;;210.83;58.77;;;;;;;;;;5084356;28;20040;-67
2022/06/28 02:22:23;;;;;;;224.23;62.47;;;;;;;;;;5081081;28;20016;-67
2022/06/28 02:24:48;;;;;;;256.07;69.30;;;;;;;;;;5083757;28;20046;-67
2022/06/28 02:27:14;;;;;;;289.63;68.40;;;;;;;;;;5071361;28;20495;-67
2022/06/28 02:29:39;;;;;;;468.77;71.60;;;;;;;;;;5074686;28;20040;-67
2022/06/28 02:32:05;;;;;;;485.87;72.27;;;;;;;;;;5083358;28;20027;-67
2022/06/28 02:42:42;;;;;;;381.40;63.23;;;;;;;;;;5084065;28;20433;-67
2022/06/28 02:45:08;;;;;;;295.30;61.73;;;;;;;;;;5087477;28;20028;-67
2022/06/28 02:47:33;;;;;;;280.93;60.43;;;;;;;;;;5073937;28;20036;-67
2022/06/28 02:49:58;;;;;;;237.93;59.50;;;;;;;;;;5080987;28;20434;-67
2022/06/28 02:52:23;;;;;;;536.17;67.17;;;;;;;;;;5087223;28;20525;-67
2022/06/28 02:54:49;;;;;;;341.13;61.23;;;;;;;;;;5076828;28;20619;-67
2022/06/28 02:57:14;;;;;;;588.67;67.67;;;;;;;;;;5075650;28;20032;-67
2022/06/28 02:59:39;;;;;;;615.77;68.47;;;;;;;;;;5079366;28;20599;-67
2022/06/28 03:02:04;;;;;;;515.97;70.87;;;;;;;;;;5078958;28;20107;-67
2022/06/28 03:04:29;;;;;;;593.90;75.20;;;;;;;;;;5086018;28;20019;-67
2022/06/28 03:06:55;;;;;;;580.20;73.57;;;;;;;;;;5077476;28;20435;-68
2022/06/28 03:09:20;;;;;;;551.97;74.53;;;;;;;;;;5072959;28;20024;-67
2022/06/28 03:11:45;;;;;;;570.97;71.43;;;;;;;;;;5084516;28;20055;-67
2022/06/28 03:14:10;;;;;;;547.80;68.47;;;;;;;;;;5072043;28;20075;-67
2022/06/28 03:16:35;;;;;;;463.73;61.17;;;;;;;;;;5073557;28;20489;-67
2022/06/28 03:19:01;;;;;;;370.33;59.07;;;;;;;;;;5073060;28;20540;-67
2022/06/28 03:21:26;;;;;;;415.77;63.37;;;;;;;;;;5081153;28;20016;-67
2022/06/28 03:23:51;;;;;;;406.57;60.67;;;;;;;;;;5092298;28;20012;-67
2022/06/28 03:26:17;;;;;;;439.03;62.93;;;;;;;;;;5091852;28;20055;-67
2022/06/28 03:28:42;;;;;;;359.03;59.97;;;;;;;;;;5091407;28;20020;-67
2022/06/28 03:31:07;;;;;;;443.97;62.47;;;;;;;;;;5086762;28;20043;-67
2022/06/28 03:33:32;;;;;;;414.40;63.00;;;;;;;;;;5072395;28;20049;-67
2022/06/28 03:35:58;;;;;;;364.27;59.17;;;;;;;;;;5071981;28;20377;-67
2022/06/28 03:38:23;;;;;;;319.50;59.17;;;;;;;;;;5071891;28;20455;-67
2022/06/28 03:40:48;;;;;;;316.03;58.80;;;;;;;;;;5071732;28;20031;-67
2022/06/28 03:43:13;;;;;;;236.53;55.40;;;;;;;;;;5072172;28;20021;-68
2022/06/28 03:45:39;;;;;;;260.33;56.47;;;;;;;;;;5073002;28;20428;-67
2022/06/28 03:48:04;;;;;;;228.40;56.13;;;;;;;;;;5076971;28;20363;-67
2022/06/28 03:50:29;;;;;;;193.13;54.60;;;;;;;;;;5080568;28;20111;-67
2022/06/28 03:52:55;;;;;;;224.27;56.00;;;;;;;;;;5089685;28;20028;-67
2022/06/28 03:55:20;;;;;;;318.37;59.70;;;;;;;;;;5087329;28;20024;-67
2022/06/28 03:57:45;;;;;;;341.87;60.93;;;;;;;;;;5071531;28;20024;-67
2022/06/28 04:00:11;;;;;;;299.83;60.50;;;;;;;;;;5071888;28;20024;-67
2022/06/28 04:02:36;;;;;;;294.00;57.60;;;;;;;;;;5072120;28;20016;-67
2022/06/28 04:05:01;;;;;;;261.53;56.03;;;;;;;;;;5071900;28;20031;-67
2022/06/28 04:07:27;;;;;;;239.43;55.13;;;;;;;;;;5088773;28;20027;-67
2022/06/28 04:09:52;;;;;;;200.53;53.00;;;;;;;;;;5085740;28;20020;-67
2022/06/28 04:12:17;;;;;;;166.17;49.30;;;;;;;;;;5085530;28;20021;-67
2022/06/28 04:14:43;;;;;;;139.03;45.93;;;;;;;;;;5074737;28;20028;-67
2022/06/28 04:17:08;;;;;;;108.40;41.83;;;;;;;;;;5082614;28;20027;-67
2022/06/28 04:19:33;;;;;;;84.30;36.60;;;;;;;;;;5078279;28;20388;-67
2022/06/28 04:21:59;;;;;;;92.30;37.43;;;;;;;;;;5072826;28;20466;-67
2022/06/28 04:24:25;;;;;;;75.13;35.23;;;;;;;;;;5080163;28;20028;-67
2022/06/28 04:26:50;;;;;;;64.90;33.80;;;;;;;;;;5074214;28;20021;-67
2022/06/28 04:29:15;;;;;;;60.03;30.33;;;;;;;;;;5071101;28;20107;-67
2022/06/28 04:31:40;;;;;;;48.77;27.63;;;;;;;;;;5076104;28;20036;-67
2022/06/28 04:34:05;;;;;;;40.23;26.00;;;;;;;;;;5071288;28;20419;-67
2022/06/28 04:36:31;;;;;;;35.70;23.50;;;;;;;;;;5074557;28;20024;-67
2022/06/28 04:38:56;;;;;;;30.77;21.90;;;;;;;;;;5086678;28;20028;-67
2022/06/28 04:41:24;;;;;;;29.23;20.37;;;;;;;;;;5087841;28;20025;-67
2022/06/28 04:43:50;;;;;;;23.87;17.50;;;;;;;;;;5080004;28;20024;-67
2022/06/28 04:46:15;;;;;;;20.55;15.57;;;;;;;;;;5080956;28;20026;-67
2022/06/28 04:48:40;;;;;;;21.45;15.10;;;;;;;;;;5074652;28;20028;-67
2022/06/28 04:51:11;;;;;;;17.17;13.30;;;;;;;;;;5084684;28;20089;-67
2022/06/28 04:53:38;;;;;;;21.52;12.73;;;;;;;;;;5076887;28;20033;-67
2022/06/28 04:56:04;;;;;;;19.90;12.10;;;;;;;;;;5082927;28;20052;-67
2022/06/28 04:58:29;;;;;;;17.17;11.90;;;;;;;;;;5080916;28;20300;-67
2022/06/28 05:00:54;;;;;;;15.90;11.40;;;;;;;;;;5073502;28;20036;-68
2022/06/28 05:03:19;;;;;;;17.75;11.40;;;;;;;;;;5082171;28;20391;-67
2022/06/28 05:05:45;;;;;;;17.17;11.40;;;;;;;;;;5071614;28;20361;-67
2022/06/28 05:08:10;;;;;;;14.10;10.88;;;;;;;;;;5074584;28;20435;-68
2022/06/28 05:10:36;;;;;;;17.30;10.82;;;;;;;;;;5091873;28;20035;-68
2022/06/28 05:13:01;;;;;;;16.33;10.65;;;;;;;;;;5080682;28;20020;-68
2022/06/28 05:15:26;;;;;;;16.52;10.43;;;;;;;;;;5073702;28;20032;-68
2022/06/28 05:17:51;;;;;;;14.98;10.88;;;;;;;;;;5074399;28;20024;-68
2022/06/28 05:20:17;;;;;;;14.75;10.32;;;;;;;;;;5093921;28;20024;-68
2022/06/28 05:22:42;;;;;;;18.33;10.50;;;;;;;;;;5084440;28;20024;-68
2022/06/28 05:25:07;;;;;;;14.32;10.35;;;;;;;;;;5074850;28;20015;-68
2022/06/28 05:27:33;;;;;;;15.50;10.25;;;;;;;;;;5075600;28;20058;-68
2022/06/28 05:29:58;;;;;;;18.42;11.63;;;;;;;;;;5080267;28;20030;-68
2022/06/28 05:32:23;;;;;;;15.93;10.15;;;;;;;;;;5082565;28;20091;-68
2022/06/28 05:34:48;;;;;;;17.73;10.35;;;;;;;;;;5090087;28;20028;-68
2022/06/28 05:37:14;;;;;;;15.63;9.95;;;;;;;;;;5083420;28;20358;-68
2022/06/28 05:39:39;;;;;;;14.77;10.13;;;;;;;;;;5083896;28;20473;-67
2022/06/28 05:42:04;;;;;;;15.57;9.95;;;;;;;;;;5073404;28;20334;-67
2022/06/28 05:44:30;;;;;;;18.77;10.02;;;;;;;;;;5078129;28;20392;-67
2022/06/28 05:46:55;;;;;;;15.88;9.75;;;;;;;;;;5074418;28;20445;-68
2022/06/28 05:49:20;;;;;;;14.45;9.70;;;;;;;;;;5079978;28;20026;-68
2022/06/28 05:51:45;;;;;;;12.68;9.10;;;;;;;;;;5073340;28;20043;-68
2022/06/28 05:54:11;;;;;;;14.43;9.23;;;;;;;;;;5077114;28;20640;-68
2022/06/28 05:56:36;;;;;;;16.52;8.55;;;;;;;;;;5079639;28;20449;-68
2022/06/28 05:59:04;;;;;;;15.18;9.18;;;;;;;;;;5082961;28;20552;-68
2022/06/28 06:01:29;;;;;;;13.48;7.97;;;;;;;;;;5079545;28;20027;-68
2022/06/28 06:03:56;;;;;;;15.82;8.88;;;;;;;;;;5075473;28;20024;-68
2022/06/28 06:06:23;;;;;;;12.88;6.95;;;;;;;;;;5086638;28;20375;-68
2022/06/28 06:08:48;;;;;;;13.65;7.43;;;;;;;;;;5073726;28;20016;-68
2022/06/28 06:11:14;;;;;;;13.25;7.22;;;;;;;;;;5083232;28;20024;-68
2022/06/28 06:13:39;;;;;;;14.73;7.82;;;;;;;;;;5080151;28;20035;-68
2022/06/28 06:16:05;;;;;;;15.27;7.57;;;;;;;;;;5083582;28;20023;-68
2022/06/28 06:18:30;;;;;;;14.65;8.60;;;;;;;;;;5092217;28;20031;-68
2022/06/28 06:20:55;;;;;;;12.50;7.45;;;;;;;;;;5093506;28;20023;-68
2022/06/28 06:23:21;;;;;;;13.40;7.20;;;;;;;;;;5093855;28;20028;-68
2022/06/28 06:25:46;;;;;;;12.98;7.07;;;;;;;;;;5093938;28;20103;-68
2022/06/28 06:28:11;;;;;;;11.30;6.88;;;;;;;;;;5091557;28;20028;-68
2022/06/28 06:30:36;;;;;;;11.85;6.57;;;;;;;;;;5089314;28;20078;-69
2022/06/28 06:33:02;;;;;;;14.63;6.68;;;;;;;;;;5073439;28;20021;-68
2022/06/28 06:35:27;;;;;;;10.00;6.63;;;;;;;;;;5072888;28;20020;-68
2022/06/28 06:37:53;;;;;;;9.40;6.00;;;;;;;;;;5085709;28;20028;-68
2022/06/28 06:40:19;;;;;;;13.60;6.72;;;;;;;;;;5093317;28;20070;-68
2022/06/28 06:42:45;;;;;;;11.77;6.53;;;;;;;;;;5091731;28;20016;-68
2022/06/28 06:45:10;;;;;;;11.98;6.65;;;;;;;;;;5093513;28;20031;-68
2022/06/28 06:47:35;;;;;;;9.55;5.70;;;;;;;;;;5093371;28;20528;-68
2022/06/28 06:50:07;;;;;;;9.05;5.97;;;;;;;;;;5087371;28;20020;-68
2022/06/28 06:52:32;;;;;;;9.70;5.55;;;;;;;;;;5073004;28;20101;-68
2022/06/28 06:54:57;;;;;;;9.57;5.85;;;;;;;;;;5073000;28;20071;-68
2022/06/28 06:57:23;;;;;;;9.23;5.88;;;;;;;;;;5078503;28;20488;-68
2022/06/28 06:59:48;;;;;;;11.43;6.05;;;;;;;;;;5093108;28;20464;-68
2022/06/28 07:02:13;;;;;;;7.85;5.47;;;;;;;;;;5093176;28;20357;-68
2022/06/28 07:04:39;;;;;;;9.95;5.40;;;;;;;;;;5092819;28;20376;-68
2022/06/28 07:07:04;;;;;;;8.68;5.65;;;;;;;;;;5089402;28;20115;-68
2022/06/28 07:09:30;;;;;;;10.18;5.75;;;;;;;;;;5092849;28;20020;-68
2022/06/28 07:11:55;;;;;;;13.77;5.40;;;;;;;;;;5088045;28;20031;-69
2022/06/28 07:14:20;;;;;;;10.05;5.28;;;;;;;;;;5072545;28;20465;-68
2022/06/28 07:16:45;;;;;;;11.57;6.22;;;;;;;;;;5083131;28;20376;-68
2022/06/28 07:19:11;;;;;;;9.07;5.40;;;;;;;;;;5092466;28;20554;-68
2022/06/28 07:21:36;;;;;;;10.40;5.15;;;;;;;;;;5091996;28;20024;-68
2022/06/28 07:24:01;;;;;;;9.73;5.80;;;;;;;;;;5072307;28;20384;-68
2022/06/28 07:26:26;;;;;;;7.90;5.13;;;;;;;;;;5072258;28;20020;-68
2022/06/28 07:28:52;;;;;;;11.55;6.18;;;;;;;;;;5090049;28;20131;-68
2022/06/28 07:31:17;;;;;;;8.32;5.30;;;;;;;;;;5092708;28;20023;-68
2022/06/28 07:33:42;;;;;;;8.63;5.03;;;;;;;;;;5092700;28;20024;-68
2022/06/28 07:36:08;;;;;;;8.57;5.03;;;;;;;;;;5090877;28;20039;-68
2022/06/28 07:38:33;;;;;;;9.32;4.85;;;;;;;;;;5092599;28;20524;-68
2022/06/28 07:40:58;;;;;;;8.52;4.80;;;;;;;;;;5092071;28;20373;-67
2022/06/28 07:43:25;;;;;;;8.02;4.60;;;;;;;;;;5090928;28;20008;-67
2022/06/28 07:45:50;;;;;;;8.20;5.70;;;;;;;;;;5092140;28;20031;-67
2022/06/28 07:48:18;;;;;;;8.07;5.35;;;;;;;;;;5092129;28;20016;-67
2022/06/28 07:53:27;;;;;;;10.75;5.30;;;;;;;;;;5071720;28;20069;-67
2022/06/28 07:55:52;;;;;;;8.38;5.00;;;;;;;;;;5074510;28;20456;-67
2022/06/28 07:58:17;;;;;;;10.55;5.63;;;;;;;;;;5087916;28;20484;-67
2022/06/28 08:00:43;;;;;;;10.93;4.78;;;;;;;;;;5091939;28;20047;-67
2022/06/28 08:03:09;;;;;;;10.15;4.55;;;;;;;;;;5077492;28;20487;-67
2022/06/28 08:05:34;;;;;;;7.30;4.40;;;;;;;;;;5071677;28;20021;-67
2022/06/28 08:07:59;;;;;;;8.52;5.07;;;;;;;;;;5074139;28;20076;-67
2022/06/28 08:10:24;;;;;;;7.32;4.72;;;;;;;;;;5071714;28;20027;-67
2022/06/28 08:12:49;;;;;;;9.00;4.70;;;;;;;;;;5085833;28;20028;-67
2022/06/28 08:15:15;;;;;;;7.43;4.18;;;;;;;;;;5091973;28;20537;-67
2022/06/28 08:17:40;;;;;;;7.68;4.03;;;;;;;;;;5090061;28;20020;-67
2022/06/28 08:20:06;;;;;;;9.27;3.88;;;;;;;;;;5091521;28;20016;-67
2022/06/28 08:22:31;;;;;;;11.23;4.93;;;;;;;;;;5088472;28;20133;-67
2022/06/28 08:24:56;;;;;;;9.38;4.70;;;;;;;;;;5091406;28;20361;-67
2022/06/28 08:27:21;;;;;;;8.57;3.90;;;;;;;;;;5080983;28;20051;-67
2022/06/28 08:29:47;;;;;;;7.82;4.10;;;;;;;;;;5087841;28;20093;-67
2022/06/28 08:32:13;;;;;;;11.20;4.78;;;;;;;;;;5071078;28;20091;-68
2022/06/28 08:34:39;;;;;;;8.68;4.68;;;;;;;;;;5071504;28;20043;-67
2022/06/28 08:37:04;;;;;;;11.68;6.07;;;;;;;;;;5073484;28;20031;-67
2022/06/28 08:39:30;;;;;;;10.40;5.55;;;;;;;;;;5071038;28;20508;-67
2022/06/28 08:41:55;;;;;;;5.93;4.18;;;;;;;;;;5076629;28;20030;-67
2022/06/28 08:44:21;;;;;;;9.07;4.43;;;;;;;;;;5085976;28;20366;-67
2022/06/28 08:46:49;;;;;;;7.75;4.47;;;;;;;;;;5080070;28;20115;-67
2022/06/28 08:49:19;;;;;;;12.15;4.72;;;;;;;;;;5095747;28;20441;-67
2022/06/28 08:51:45;;;;;;;6.03;3.72;;;;;;;;;;5076715;28;20028;-67
2022/06/28 08:54:12;;;;;;;9.27;4.20;;;;;;;;;;5075518;28;20040;-67
2022/06/28 08:56:38;;;;;;;7.10;4.22;;;;;;;;;;5090465;28;20051;-67
2022/06/28 08:59:06;;;;;;;6.57;4.10;;;;;;;;;;5076463;28;20495;-67
2022/06/28 09:01:31;;;;;;;8.00;4.22;;;;;;;;;;5077819;28;20489;-67
2022/06/28 09:03:59;;;;;;;6.47;3.42;;;;;;;;;;5074903;28;20012;-68
2022/06/28 09:06:24;;;;;;;6.68;3.30;;;;;;;;;;5084168;28;20016;-67
2022/06/28 09:08:49;;;;;;;6.10;3.30;;;;;;;;;;5088119;28;20078;-68
2022/06/28 09:11:15;;;;;;;7.47;3.40;;;;;;;;;;5088677;28;20168;-68
2022/06/28 09:13:41;;;;;;;7.53;3.20;;;;;;;;;;5081097;28;20032;-68
2022/06/28 09:16:06;;;;;;;6.00;3.50;;;;;;;;;;5074922;28;20042;-68
2022/06/28 09:18:34;;;;;;;6.75;3.85;;;;;;;;;;5074916;28;20024;-68
2022/06/28 09:21:00;;;;;;;8.65;3.63;;;;;;;;;;5075794;28;20017;-67
2022/06/28 09:23:27;;;;;;;7.97;2.88;;;;;;;;;;5090330;28;20027;-67
2022/06/28 09:25:54;;;;;;;7.32;3.30;;;;;;;;;;5095134;28;20051;-69
2022/06/28 09:28:24;;;;;;;8.43;2.50;;;;;;;;;;5081773;28;20016;-68
2022/06/28 09:30:49;;;;;;;4.53;2.00;;;;;;;;;;5087642;28;20074;-68
2022/06/28 09:33:34;;;;;;;4.03;1.70;;;;;;;;;;5094846;28;20020;-68
2022/06/28 09:36:00;;;;;;;4.30;1.92;;;;;;;;;;5091054;28;20174;-68
2022/06/28 09:38:30;;;;;;;4.88;1.80;;;;;;;;;;5094941;28;20054;-68
2022/06/28 09:40:56;;;;;;;5.75;2.03;;;;;;;;;;5079038;28;20036;-68
2022/06/28 09:43:21;;;;;;;5.57;2.35;;;;;;;;;;5080501;28;20028;-68
2022/06/28 09:45:47;;;;;;;4.70;2.00;;;;;;;;;;5074399;28;20021;-68
2022/06/28 09:48:16;;;;;;;6.25;2.00;;;;;;;;;;5074207;28;20052;-69
2022/06/28 09:50:41;;;;;;;3.88;1.80;;;;;;;;;;5085895;28;20062;-68
2022/06/28 09:53:07;;;;;;;4.30;1.50;;;;;;;;;;5091321;28;20024;-68
2022/06/28 09:55:33;;;;;;;4.18;1.50;;;;;;;;;;5093364;28;20069;-68
2022/06/28 09:57:59;;;;;;;5.07;2.00;;;;;;;;;;5085512;28;20028;-68
2022/06/28 10:00:25;;;;;;;5.35;1.80;;;;;;;;;;5076400;28;20032;-68
2022/06/28 10:02:54;;;;;;;6.05;1.58;;;;;;;;;;5073804;28;20052;-68
2022/06/28 10:05:20;;;;;;;5.53;1.55;;;;;;;;;;5076328;28;20385;-68
2022/06/28 10:07:45;;;;;;;5.15;1.50;;;;;;;;;;5073862;28;20032;-68
2022/06/28 10:10:11;;;;;;;4.50;1.48;;;;;;;;;;5082719;28;20059;-67
2022/06/28 10:15:21;;;;;;;2.95;1.17;;;;;;;;;;5093413;28;20073;-68
2022/06/28 10:17:53;;;;;;;2.65;0.88;;;;;;;;;;5093754;28;20023;-68
2022/06/28 10:20:21;;;;;;;3.38;1.10;;;;;;;;;;5084792;28;20388;-68
2022/06/28 10:22:46;;;;;;;3.90;1.55;;;;;;;;;;5077278;28;20488;-68
2022/06/28 10:25:23;;;;;;;4.45;1.58;;;;;;;;;;5073533;28;20040;-68
2022/06/28 10:27:50;;;;;;;4.72;1.30;;;;;;;;;;5080176;28;20065;-68
2022/06/28 10:30:18;;;;;;;3.38;1.20;;;;;;;;;;5086243;28;20029;-68
2022/06/28 10:33:14;;;;;;;3.83;1.10;;;;;;;;;;5087540;28;20030;-68
2022/06/28 10:35:42;;;;;;;2.72;0.90;;;;;;;;;;5074992;28;20424;-68
2022/06/28 10:38:07;;;;;;;2.72;0.80;;;;;;;;;;5073545;28;20067;-68
2022/06/28 10:40:37;;;;;;;2.20;0.70;;;;;;;;;;5072733;28;20476;-68
2022/06/28 10:43:02;;;;;;;4.20;1.00;;;;;;;;;;5079347;28;20262;-68
2022/06/28 10:45:47;;;;;;;3.40;0.98;;;;;;;;;;5093636;28;20449;-68
2022/06/28 10:48:13;;;;;;;3.47;1.00;;;;;;;;;;5093040;28;20107;-68
2022/06/28 10:51:01;;;;;;;2.28;0.80;;;;;;;;;;5090544;28;20031;-68
2022/06/28 10:53:27;;;;;;;3.03;0.90;;;;;;;;;;5093511;28;20066;-68
2022/06/28 10:56:12;;;;;;;5.47;1.17;;;;;;;;;;5088348;28;20425;-68
2022/06/28 10:58:55;;;;;;;2.35;0.80;;;;;;;;;;5082118;28;20111;-68
2022/06/28 11:01:39;;;;;;;3.05;0.80;;;;;;;;;;5076433;28;20493;-68
2022/06/28 11:04:11;;;;;;;4.55;1.20;;;;;;;;;;5075627;28;20388;-68
2022/06/28 11:06:40;;;;;;;3.10;0.70;;;;;;;;;;5080723;28;20073;-67
2022/06/28 11:09:08;;;;;;;5.13;0.90;;;;;;;;;;5078986;28;20058;-68
2022/06/28 11:11:34;;;;;;;3.15;1.02;;;;;;;;;;5081053;28;20073;-67
2022/06/28 11:14:32;;;;;;;5.15;0.93;;;;;;;;;;5084463;28;20024;-68
2022/06/28 11:16:58;;;;;;;2.83;1.00;;;;;;;;;;5064742;28;20453;-68
2022/06/28 11:19:23;;;;;;;2.53;0.80;;;;;;;;;;5089244;28;20161;-67
2022/06/28 11:21:58;;;;;;;2.55;0.70;;;;;;;;;;5083280;28;20032;-67
2022/06/28 11:24:26;;;;;;;5.72;0.70;;;;;;;;;;5076772;28;20099;-68
2022/06/28 11:29:35;;;;;;;2.90;0.90;;;;;;;;;;5076262;28;20034;-68
2022/06/28 11:32:00;;;;;;;3.88;1.00;;;;;;;;;;5082741;28;20032;-67
2022/06/28 11:34:26;;;;;;;2.65;0.80;;;;;;;;;;5083042;28;20073;-67
2022/06/28 11:36:55;;;;;;;3.25;0.70;;;;;;;;;;5081046;28;20056;-67
2022/06/28 11:39:23;;;;;;;3.33;0.85;;;;;;;;;;5085808;28;20052;-67
2022/06/28 11:41:49;;;;;;;2.30;0.80;;;;;;;;;;5082878;28;20073;-67
2022/06/28 11:44:14;;;;;;;3.60;0.80;;;;;;;;;;5071882;28;20055;-67
2022/06/28 11:46:39;;;;;;;4.00;0.88;;;;;;;;;;5073274;28;20073;-68
2022/06/28 11:49:05;;;;;;;3.65;0.90;;;;;;;;;;5080061;28;20508;-67
2022/06/28 11:51:31;;;;;;;4.70;0.90;;;;;;;;;;5074964;28;20099;-67
2022/06/28 11:53:56;;;;;;;2.00;0.63;;;;;;;;;;5074092;28;20155;-67
2022/06/28 11:56:22;;;;;;;2.95;0.68;;;;;;;;;;5070994;28;20104;-67
2022/06/28 11:58:47;;;;;;;2.20;0.70;;;;;;;;;;5071499;28;20020;-67
2022/06/28 12:01:13;;;;;;;3.00;0.90;;;;;;;;;;5071637;28;20021;-68
2022/06/28 12:03:41;;;;;;;3.33;0.80;;;;;;;;;;5071853;28;20021;-67
2022/06/28 12:06:07;;;;;;;2.97;0.60;;;;;;;;;;5076014;28;20055;-67
2022/06/28 12:08:52;;;;;;;4.25;0.90;;;;;;;;;;5080696;28;20044;-67
2022/06/28 12:11:28;;;;;;;2.95;1.10;;;;;;;;;;5077683;28;20043;-67
2022/06/28 12:14:00;;;;;;;3.08;0.70;;;;;;;;;;5080715;28;20388;-67
2022/06/28 12:16:45;;;;;;;3.17;0.80;;;;;;;;;;5071777;28;20017;-68
2022/06/28 12:19:17;;;;;;;1.80;0.60;;;;;;;;;;5071274;28;20089;-67
2022/06/28 12:22:01;;;;;;;2.45;0.60;;;;;;;;;;5075081;28;20405;-67
2022/06/28 12:24:42;;;;;;;3.75;0.50;;;;;;;;;;5079760;28;20045;-67
2022/06/28 12:27:08;;;;;;;3.55;0.60;;;;;;;;;;5079672;28;20023;-67
2022/06/28 12:29:34;;;;;;;4.00;0.80;;;;;;;;;;5089101;28;20047;-67
2022/06/28 12:31:59;;;;;;;5.10;0.80;;;;;;;;;;5091464;28;20055;-67
2022/06/28 12:34:24;;;;;;;3.60;0.85;;;;;;;;;;5091843;28;20024;-67
2022/06/28 12:36:49;;;;;;;2.90;0.70;;;;;;;;;;5076443;28;20068;-67
2022/06/28 12:39:15;;;;;;;3.95;0.77;;;;;;;;;;5091317;28;20377;-67
2022/06/28 12:41:40;;;;;;;2.97;0.68;;;;;;;;;;5088396;28;20103;-67
2022/06/28 12:44:05;;;;;;;1.90;0.57;;;;;;;;;;5074326;28;20032;-67
2022/06/28 12:46:30;;;;;;;5.75;0.80;;;;;;;;;;5070444;28;20032;-67
2022/06/28 12:48:56;;;;;;;3.33;0.60;;;;;;;;;;5071364;28;20480;-67
2022/06/28 12:51:21;;;;;;;2.28;0.60;;;;;;;;;;5073488;28;20055;-67
2022/06/28 12:53:46;;;;;;;1.73;0.60;;;;;;;;;;5071152;28;20062;-67
2022/06/28 12:56:13;;;;;;;4.30;0.77;;;;;;;;;;5081913;28;20091;-67
2022/06/28 12:58:38;;;;;;;1.98;0.65;;;;;;;;;;5089218;28;20024;-67
2022/06/28 13:01:03;;;;;;;3.17;0.55;;;;;;;;;;5086245;28;20027;-67
2022/06/28 13:03:28;;;;;;;2.55;0.65;;;;;;;;;;5089767;28;20107;-68
2022/06/28 13:05:54;;;;;;;2.80;0.60;;;;;;;;;;5080665;28;20048;-67
2022/06/28 13:08:19;;;;;;;1.67;0.45;;;;;;;;;;5071000;28;20020;-67
2022/06/28 13:10:44;;;;;;;4.57;0.68;;;;;;;;;;5080691;28;20058;-67
2022/06/28 13:13:09;;;;;;;3.17;0.70;;;;;;;;;;5079809;28;20060;-67
2022/06/28 13:15:35;;;;;;;2.22;0.60;;;;;;;;;;5071074;28;20024;-67
2022/06/28 13:18:00;;;;;;;4.32;0.60;;;;;;;;;;5070907;28;20036;-67
2022/06/28 13:20:25;;;;;;;3.28;0.70;;;;;;;;;;5071180;28;20074;-67
2022/06/28 13:22:51;;;;;;;2.53;0.77;;;;;;;;;;5081951;28;20028;-67
2022/06/28 13:25:17;;;;;;;3.58;0.63;;;;;;;;;;5076045;28;20028;-67
2022/06/28 13:27:44;;;;;;;2.15;0.65;;;;;;;;;;5078299;28;20052;-67
2022/06/28 13:30:10;;;;;;;4.18;0.77;;;;;;;;;;5085527;28;20036;-68
2022/06/28 13:32:35;;;;;;;2.55;0.60;;;;;;;;;;5086821;28;20035;-68
2022/06/28 13:35:01;;;;;;;1.90;0.73;;;;;;;;;;5087355;28;20062;-68
2022/06/28 13:37:27;;;;;;;3.55;0.90;;;;;;;;;;5081604;28;20039;-68
2022/06/28 13:39:53;;;;;;;1.83;0.70;;;;;;;;;;5085514;28;20028;-67
2022/06/28 13:42:18;;;;;;;2.58;0.70;;;;;;;;;;5093837;28;20061;-68
2022/06/28 13:44:43;;;;;;;3.53;0.80;;;;;;;;;;5074772;28;20361;-67
2022/06/28 13:47:08;;;;;;;3.47;0.70;;;;;;;;;;5074468;28;20445;-68
2022/06/28 13:49:34;;;;;;;2.53;0.77;;;;;;;;;;5083355;28;20527;-68
2022/06/28 13:51:59;;;;;;;4.40;0.93;;;;;;;;;;5079476;28;20040;-68
2022/06/28 13:54:25;;;;;;;4.43;0.80;;;;;;;;;;5076691;28;20013;-67
2022/06/28 13:56:51;;;;;;;5.65;0.82;;;;;;;;;;5074320;28;20345;-67
2022/06/28 13:59:16;;;;;;;2.47;0.80;;;;;;;;;;5085595;28;20023;-67
2022/06/28 14:01:44;;;;;;;3.60;0.90;;;;;;;;;;5094434;28;20020;-67
2022/06/28 14:04:10;;;;;;;2.08;0.63;;;;;;;;;;5094353;28;20091;-67
2022/06/28 14:06:35;;;;;;;4.57;0.70;;;;;;;;;;5079427;28;20087;-67
2022/06/28 14:09:00;;;;;;;2.92;0.70;;;;;;;;;;5087578;28;20099;-68
2022/06/28 14:11:25;;;;;;;4.30;0.98;;;;;;;;;;5094074;28;20048;-68
2022/06/28 14:13:51;;;;;;;2.67;0.70;;;;;;;;;;5084931;28;20064;-68
2022/06/28 14:16:16;;;;;;;5.88;0.80;;;;;;;;;;5073798;28;20032;-67
2022/06/28 14:18:41;;;;;;;3.13;1.05;;;;;;;;;;5083682;28;20114;-67
2022/06/28 14:21:06;;;;;;;3.63;0.90;;;;;;;;;;5085720;28;20090;-67
2022/06/28 14:23:32;;;;;;;3.25;0.82;;;;;;;;;;5089848;28;20472;-67
2022/06/28 14:25:57;;;;;;;2.40;0.80;;;;;;;;;;5093849;28;20023;-67
2022/06/28 14:28:22;;;;;;;3.65;0.80;;;;;;;;;;5091376;28;20586;-67
2022/06/28 14:30:47;;;;;;;4.03;0.98;;;;;;;;;;5093727;28;20388;-67
2022/06/28 14:33:13;;;;;;;2.90;0.88;;;;;;;;;;5093585;28;20491;-67
2022/06/28 14:35:39;;;;;;;4.20;0.80;;;;;;;;;;5091456;28;20021;-67
2022/06/28 14:38:04;;;;;;;3.00;0.80;;;;;;;;;;5072754;28;20063;-68
2022/06/28 14:40:32;;;;;;;2.72;0.73;;;;;;;;;;5072643;28;20033;-67